Time;durP1;ratioP1;P1;durP2;ratioP2;P2;SDS_P1;SDS_P2;PMS_P1;PMS_P2;Temp;Humidity;BMP_temperature;BMP_pressure;BME280_temperature;BME280_humidity;BME280_pressure;Samples;Min_cycle;Max_cycle;Signal;HPM_P1;HPM_P2
2022/04/19 00:01:59;;;;;;;;;;;6.20;99.90;;;5.13;64.49;95303.78;10463756;28;1599;-69
2022/04/19 00:07:02;;;;;;;;;;;6.20;99.90;;;5.14;64.49;95287.53;10475385;28;1470;-70
2022/04/19 00:12:06;;;;;;;;;;;6.20;99.90;;;5.12;64.26;95284.31;10495110;28;1455;-70
2022/04/19 00:17:09;;;;;;;;;;;6.20;99.90;;;5.25;64.05;95284.97;10496546;28;1980;-70
2022/04/19 00:22:13;;;;;;;;;;;6.30;99.90;;;5.28;63.58;95276.47;10493210;28;1494;-68
2022/04/19 00:27:16;;;;;;;;;;;6.30;99.90;;;5.24;62.75;95276.19;10487270;28;1694;-69
2022/04/19 00:32:19;;;;;;;;;;;6.20;99.90;;;5.34;62.55;95259.47;10459303;28;1993;-68
2022/04/19 00:37:23;;;;;;;;;;;6.30;99.90;;;5.36;62.18;95258.19;10501535;28;1950;-69
2022/04/19 00:42:28;;;;;;;;;;;6.40;99.90;;;5.21;63.32;95239.38;10501371;28;1975;-70
2022/04/19 00:47:32;;;;;;;;;;;6.40;99.90;;;5.15;63.39;95235.06;10500238;28;2018;-69
2022/04/19 00:52:35;;;;;;;;;;;6.30;99.90;;;5.11;63.79;95223.31;10479098;28;1854;-69
2022/04/19 00:57:38;;;;;;;;;;;6.20;99.90;;;4.99;64.24;95222.66;10492791;28;1930;-69
2022/04/19 01:02:42;;;;;;;;;;;6.10;99.90;;;5.00;64.50;95222.41;10453096;28;1594;-70
2022/04/19 01:07:46;;;;;;;;;;;;;;;4.97;64.08;95216.78;10459436;28;1978;-70
2022/04/19 01:18:20;;;;;;;;;;;;;;;5.06;64.38;95208.06;10451305;28;2148;-70
2022/04/19 01:23:24;;;;;;;;;;;;;;;4.98;64.70;95202.41;10472694;28;1911;-69
2022/04/19 01:28:28;;;;;;;;;;;;;;;4.95;64.80;95202.91;10450333;28;1888;-70
2022/04/19 01:33:32;;;;;;;;;;;;;;;4.91;64.91;95201.81;10454815;28;1888;-69
2022/04/19 01:38:35;;;;;;;;;;;;;;;4.87;66.12;95196.97;10477688;28;1914;-70
2022/04/19 01:43:41;;;;;;;;;;;;;;;4.76;66.22;95189.94;10456119;28;1927;-69
2022/04/19 01:48:45;;;;;;;;;;;;;;;4.81;65.78;95181.19;10484567;22;1689;-76
2022/04/19 01:53:48;;;;;;;;;;;;;;;4.90;65.60;95182.38;10404062;28;2108;-76
2022/04/19 01:58:53;;;;;;;;;;;;;;;4.87;65.56;95181.00;10404136;28;2418;-76
2022/04/19 02:03:57;;;;;;;;;;;;;;;4.92;65.09;95176.78;10423048;28;1876;-79
2022/04/19 02:09:02;;;;;;;;;;;;;;;4.93;65.93;95173.06;10428539;28;1725;-77
2022/04/19 02:14:06;;;;;;;;;;;;;;;4.81;65.61;95171.34;10414616;28;1744;-80
2022/04/19 02:19:11;;;;;;;;;;;;;;;4.87;66.58;95175.66;10426157;28;1952;-78
2022/04/19 02:24:16;;;;;;;;;;;;;;;4.88;66.41;95171.94;10422073;28;1688;-79
2022/04/19 02:29:20;;;;;;;;;;;;;;;4.81;66.47;95174.00;10439303;28;1731;-80
2022/04/19 02:34:24;;;;;;;;;;;;;;;4.78;67.01;95171.88;10422182;28;1838;-78
2022/04/19 02:39:28;;;;;;;;;;;;;;;4.88;66.42;95165.81;10436443;28;1891;-79
2022/04/19 02:44:32;;;;;;;;;;;;;;;4.93;66.10;95167.72;10438948;28;1531;-78
2022/04/19 02:49:36;;;;;;;;;;;;;;;5.00;65.72;95168.31;10414757;28;1601;-78
2022/04/19 02:54:41;;;;;;;;;;;;;;;5.12;65.35;95160.97;10445064;28;1499;-81
2022/04/19 02:59:45;;;;;;;;;;;;;;;5.17;64.73;95150.38;10425320;28;1898;-78
2022/04/19 03:04:49;;;;;;;;;;;;;;;5.15;65.02;95155.97;10433006;28;1745;-77
2022/04/19 03:10:03;;;;;;;;;;;;;;;5.19;64.73;95150.09;10423300;28;1570;-79
2022/04/19 03:15:07;;;;;;;;;;;;;;;5.10;65.25;95142.59;10412164;28;1537;-79
2022/04/19 03:20:11;;;;;;;;;;;;;;;5.17;64.74;95142.38;10424941;28;1922;-79
2022/04/19 03:30:35;;;;;;;;;;;;;;;5.13;64.58;95138.59;10422996;28;1491;-76
2022/04/19 03:35:40;;;;;;;;;;;;;;;5.07;64.75;95142.28;10435717;28;1382;-77
2022/04/19 03:40:44;;;;;;;;;;;;;;;5.04;65.73;95148.13;10419067;28;1922;-78
2022/04/19 03:45:47;;;;;;;;;;;;;;;4.97;65.24;95143.00;10431504;28;1456;-78
2022/04/19 03:50:52;;;;;;;;;;;;;;;4.94;66.08;95140.03;10444091;28;1440;-79
2022/04/19 03:55:56;;;;;;;;;;;;;;;4.92;65.70;95147.50;10421728;28;1468;-79
2022/04/19 04:00:59;;;;;;;;;;;;;;;4.86;66.29;95142.09;10409021;28;1985;-78
2022/04/19 04:06:03;;;;;;;;;;;;;;;4.73;66.60;95137.19;10433594;28;1850;-79
2022/04/19 04:11:07;;;;;;;;;;;;;;;4.68;66.55;95147.78;10415740;28;1382;-79
2022/04/19 04:21:37;;;;;;;;;;;;;;;4.48;66.88;95145.72;10419497;28;1848;-78
2022/04/19 04:26:41;;;;;;;;;;;;;;;4.41;67.71;95147.00;10427746;28;1681;-76
2022/04/19 04:31:44;;;;;;;;;;;;;;;4.36;68.20;95152.25;10431544;28;1462;-80
2022/04/19 04:36:48;;;;;;;;;;;;;;;4.29;69.03;95155.91;10451032;28;1891;-79
2022/04/19 04:42:02;;;;;;;;;;;;;;;4.25;72.11;95152.13;10435000;28;1914;-78
2022/04/19 04:52:34;;;;;;;;;;;;;;;4.22;74.11;95152.63;10432836;28;1483;-77
2022/04/19 04:57:38;;;;;;;;;;;;;;;4.56;73.61;95147.13;10441880;28;1899;-79
2022/04/19 05:02:44;;;;;;;;;;;;;;;5.02;71.79;95139.56;10428332;28;1436;-76
2022/04/19 05:07:48;;;;;;;;;;;;;;;5.36;69.98;95130.25;10461467;28;1604;-77
2022/04/19 05:12:53;;;;;;;;;;;;;;;5.92;67.55;95127.94;10460518;28;1547;-79
2022/04/19 05:17:57;;;;;;;;;;;;;;;6.61;64.79;95128.69;10443052;28;1973;-76
2022/04/19 05:23:17;;;;;;;;;;;;;;;7.29;61.43;95129.28;10432003;28;1551;-78
2022/04/19 05:28:25;;;;;;;;;;;;;;;7.32;60.44;95131.44;10432059;28;1891;-78
2022/04/19 05:33:31;;;;;;;;;;;;;;;7.90;59.19;95134.56;10469186;28;1787;-79
2022/04/19 05:38:42;;;;;;;;;;;;;;;7.63;58.99;95139.41;10468156;28;1883;-77
2022/04/19 05:43:49;;;;;;;;;;;;;;;7.27;59.44;95144.81;10438088;28;1553;-77
2022/04/19 05:48:55;;;;;;;;;;;;;;;7.70;59.16;95145.28;10431167;28;1811;-78
2022/04/19 05:54:12;;;;;;;;;;;;;;;8.03;57.75;95142.00;10448974;28;1771;-78
2022/04/19 05:59:16;;;;;;;;;;;;;;;8.45;57.76;95140.78;10436240;28;1906;-79
2022/04/19 06:09:46;;;;;;;;;;;;;;;7.56;59.09;95145.84;10447504;28;1859;-77
2022/04/19 06:14:50;;;;;;;;;;;;;;;8.03;57.11;95144.69;10423929;28;1633;-77
2022/04/19 06:19:56;;;;;;;;;;;;;;;8.17;56.82;95146.78;10440349;28;1967;-79
2022/04/19 06:25:01;;;;;;;;;;;;;;;8.22;56.87;95139.53;10422764;28;1477;-79
2022/04/19 06:30:07;;;;;;;;;;;;;;;7.98;56.00;95133.19;10434236;28;1738;-80
2022/04/19 06:35:14;;;;;;;;;;;;;;;8.00;55.39;95137.19;10427114;28;1489;-79
2022/04/19 06:40:18;;;;;;;;;;;;;;;7.91;56.36;95136.16;10408892;28;1915;-77
2022/04/19 06:45:22;;;;;;;;;;;;;;;8.13;55.66;95141.94;10427474;28;1538;-80
2022/04/19 06:50:26;;;;;;;;;;;;;;;8.25;55.28;95148.88;10411978;28;1908;-79
2022/04/19 06:55:39;;;;;;;;;;;;;;;8.11;54.37;95146.78;10418820;28;1460;-80
2022/04/19 07:00:46;;;;;;;;;;;;;;;8.58;53.63;95150.88;10423204;28;1977;-80
2022/04/19 07:06:00;;;;;;;;;;;;;;;8.74;53.22;95153.50;10428303;28;1476;-79
2022/04/19 07:11:11;;;;;;;;;;;;;;;9.22;53.12;95138.41;10421599;28;1663;-78
2022/04/19 07:16:20;;;;;;;;;;;;;;;8.79;53.48;95140.09;10427007;28;1587;-78
2022/04/19 07:27:14;;;;;;;;;;;;;;;9.40;52.90;95145.00;10395710;28;1614;-78
2022/04/19 07:32:34;;;;;;;;;;;;;;;9.60;52.72;95138.66;10422767;28;1410;-80
2022/04/19 07:37:51;;;;;;;;;;;;;;;9.46;51.53;95133.94;10431495;28;1956;-78
2022/04/19 07:42:58;;;;;;;;;;;;;;;10.22;48.37;95123.50;10462539;22;2122;-72
2022/04/19 07:48:03;;;;;;;;;;;;;;;10.64;46.71;95120.06;10440447;28;1299;-72
2022/04/19 07:53:06;;;;;;;;;;;11.10;99.90;;;11.08;45.36;95111.63;10463594;22;3605;-71
2022/04/19 07:58:09;;;;;;;;;;;;;;;11.67;43.72;95108.50;10474184;28;1998;-72
2022/04/19 08:03:15;;;;;;;;;;;;;;;11.50;44.59;95114.44;10446935;28;1566;-71
2022/04/19 08:08:19;;;;;;;;;;;;;;;11.12;44.43;95102.94;10455209;28;1534;-72
2022/04/19 08:13:22;;;;;;;;;;;;;;;10.33;46.62;95121.53;10465006;28;1531;-72
2022/04/19 08:18:25;;;;;;;;;;;;;;;10.76;46.43;95106.97;10441956;28;1977;-72
2022/04/19 08:23:29;;;;;;;;;;;;;;;10.43;47.38;95102.59;10476497;28;1895;-71
2022/04/19 08:28:34;;;;;;;;;;;;;;;10.56;47.78;95101.91;10459429;28;1436;-71
2022/04/19 08:33:37;;;;;;;;;;;;;;;10.60;47.37;95102.91;10460123;28;1498;-71
2022/04/19 08:38:40;;;;;;;;;;;;;;;11.59;45.24;95091.94;10480032;28;1922;-72
2022/04/19 08:43:44;;;;;;;;;;;;;;;12.12;43.21;95096.91;10471624;28;1607;-71
2022/04/19 08:48:47;;;;;;;;;;;12.80;99.90;;;12.60;42.48;95093.78;10492430;28;1523;-71
2022/04/19 08:59:11;;;;;;;;;;;;;;;12.58;41.96;95095.16;10457280;28;1976;-71
2022/04/19 09:04:14;;;;;;;;;;;;;;;12.57;41.83;95101.66;10476889;28;1330;-71
2022/04/19 09:09:18;;;;;;;;;;;;;;;12.54;43.03;95094.19;10484115;28;1468;-71
2022/04/19 09:14:23;;;;;;;;;;;;;;;12.87;41.54;95092.13;10472277;28;1993;-71
2022/04/19 09:19:26;;;;;;;;;;;;;;;12.92;39.99;95092.00;10479493;28;1910;-71
2022/04/19 09:24:31;;;;;;;;;;;;;;;13.15;40.14;95098.22;10455146;28;1559;-71
2022/04/19 09:29:34;;;;;;;;;;;;;;;13.40;40.08;95104.94;10478494;28;1566;-72
2022/04/19 09:34:38;;;;;;;;;;;13.80;99.90;;;13.75;39.29;95085.16;10441213;28;1961;-73
2022/04/19 09:39:41;;;;;;;;;;;14.10;99.90;;;13.48;39.49;95091.47;10482571;28;1975;-72
2022/04/19 09:44:43;;;;;;;;;;;14.30;99.90;;;13.44;39.31;95082.41;10471705;28;2006;-73
2022/04/19 09:49:46;;;;;;;;;;;14.20;99.90;;;13.78;38.40;95084.50;10462086;28;1575;-72
2022/04/19 09:54:49;;;;;;;;;;;14.30;99.90;;;13.44;39.63;95078.94;10477510;28;1700;-71
2022/04/19 09:59:52;;;;;;;;;;;14.20;99.90;;;13.88;37.47;95077.25;10461681;28;1921;-71
2022/04/19 10:10:16;;;;;;;;;;;14.40;99.90;;;13.32;39.35;95076.78;10460057;28;1496;-71
2022/04/19 10:15:19;;;;;;;;;;;14.30;99.90;;;14.23;37.61;95072.78;10474986;28;1523;-71
2022/04/19 10:20:23;;;;;;;;;;;14.30;99.90;;;13.88;37.81;95061.84;10453179;28;1980;-71
2022/04/19 10:25:26;;;;;;;;;;;14.40;99.90;;;13.65;39.03;95055.69;10457932;28;1536;-72
2022/04/19 10:30:32;;;;;;;;;;;14.50;99.90;;;13.36;38.77;95053.47;10448225;28;1590;-71
2022/04/19 10:35:35;;;;;;;;;;;14.50;99.90;;;14.20;37.65;95052.59;10463436;28;1529;-70
2022/04/19 10:40:39;;;;;;;;;;;;;;;14.13;37.51;95044.13;10455367;28;1988;-73
2022/04/19 10:45:46;;;;;;;;;;;;;;;14.90;36.54;95045.41;10465300;28;1610;-71
2022/04/19 10:50:51;;;;;;;;;;;;;;;14.47;36.29;95046.16;10464661;28;1448;-70
2022/04/19 10:55:55;;;;;;;;;;;;;;;14.52;36.96;95037.88;10477210;28;1459;-71
2022/04/19 11:00:59;;;;;;;;;;;;;;;14.30;37.47;95027.16;10453359;28;1914;-70
2022/04/19 11:06:09;;;;;;;;;;;;;;;13.38;38.54;95032.38;10448992;28;1676;-72
2022/04/19 11:11:20;;;;;;;;;;;;;;;13.01;39.39;95020.03;10489365;28;1578;-72
2022/04/19 11:16:44;;;;;;;;;;;;;;;12.67;40.21;95020.56;10506586;28;1490;-71
2022/04/19 11:21:48;;;;;;;;;;;;;;;12.64;39.99;95021.16;10477655;28;1898;-71
2022/04/19 11:26:52;;;;;;;;;;;;;;;13.23;38.84;95001.16;10450777;28;1902;-71
2022/04/19 11:31:56;;;;;;;;;;;;;;;13.42;38.13;94992.03;10458818;28;1331;-71
2022/04/19 11:37:00;;;;;;;;;;;;;;;13.30;38.03;94997.22;10467708;28;1857;-71
2022/04/19 11:47:24;;;;;;;;;;;;;;;14.25;36.70;94973.22;10517777;28;1483;-72
2022/04/19 11:52:28;;;;;;;;;;;;;;;14.22;36.62;94979.28;10494732;28;1478;-71
2022/04/19 11:57:32;;;;;;;;;;;;;;;14.06;36.72;94977.03;10488605;28;1254;-72
2022/04/19 12:02:35;;;;;;;;;;;;;;;14.21;36.78;94958.78;10464969;28;1903;-72
2022/04/19 12:07:39;;;;;;;;;;;;;;;14.66;35.46;94962.00;10503746;28;1577;-72
2022/04/19 12:12:42;;;;;;;;;;;;;;;15.51;34.45;94959.44;10509401;28;1538;-72
2022/04/19 12:17:46;;;;;;;;;;;;;;;15.02;35.04;94964.38;10498457;28;1775;-72
2022/04/19 12:22:49;;;;;;;;;;;;;;;15.25;33.72;94942.47;10470555;28;1952;-71
2022/04/19 12:27:54;;;;;;;;;;;;;;;15.25;34.32;94934.34;10497349;28;1415;-71
2022/04/19 12:32:57;;;;;;;;;;;;;;;15.52;34.14;94944.78;10496383;28;1703;-72
2022/04/19 12:38:01;;;;;;;;;;;;;;;15.68;33.61;94950.50;10508887;28;1397;-72
2022/04/19 12:43:05;;;;;;;;;;;16.50;99.90;;;15.12;34.65;94938.84;10509090;28;1899;-71
2022/04/19 12:48:08;;;;;;;;;;;15.90;99.90;;;15.40;32.77;94926.53;10503363;28;1424;-72
2022/04/19 12:53:11;;;;;;;;;;;;;;;15.38;32.88;94917.13;10489455;28;1565;-72
2022/04/19 12:58:14;;;;;;;;;;;17.30;99.90;;;16.03;32.29;94904.22;10512444;28;1879;-73
2022/04/19 13:03:18;;;;;;;;;;;;;;;15.66;32.38;94899.34;10491341;28;1543;-72
2022/04/19 13:13:43;;;;;;;;;;;;;;;15.11;33.89;94900.16;10492768;28;1478;-72
2022/04/19 13:18:47;;;;;;;;;;;;;;;14.95;33.02;94888.28;10460075;28;1991;-73
2022/04/19 13:23:50;;;;;;;;;;;;;;;15.30;33.00;94882.75;10464350;28;2349;-72
2022/04/19 13:28:54;;;;;;;;;;;;;;;14.66;34.59;94897.09;10455595;28;1502;-72
2022/04/19 13:33:58;;;;;;;;;;;;;;;15.03;32.78;94878.56;10476630;28;1482;-71
2022/04/19 13:39:02;;;;;;;;;;;;;;;15.49;32.08;94880.44;10485912;28;1910;-72
2022/04/19 13:44:09;;;;;;;;;;;;;;;15.40;32.40;94875.06;10470351;28;1584;-71
2022/04/19 13:49:13;;;;;;;;;;;;;;;15.36;31.65;94876.81;10476483;28;1515;-72
2022/04/19 13:54:17;;;;;;;;;;;;;;;15.35;31.78;94863.63;10471482;22;1744;-83
2022/04/19 13:59:21;;;;;;;;;;;;;;;15.26;31.71;94868.25;10484661;28;1985;-82
2022/04/19 14:04:27;;;;;;;;;;;;;;;14.97;32.60;94858.97;10462271;28;1493;-78
2022/04/19 14:09:33;;;;;;;;;;;;;;;14.93;31.83;94871.56;10493812;28;1597;-80
2022/04/19 14:14:37;;;;;;;;;;;;;;;14.38;32.83;94874.16;10482350;28;1798;-80
2022/04/19 14:19:41;;;;;;;;;;;;;;;14.81;33.49;94872.22;10474794;28;1910;-81
2022/04/19 14:24:45;;;;;;;;;;;;;;;14.80;32.83;94869.84;10492553;28;1549;-80
2022/04/19 14:35:10;;;;;;;;;;;;;;;14.52;34.60;94869.44;10473581;28;1498;-79
2022/04/19 14:40:18;;;;;;;;;;;;;;;14.56;34.14;94859.53;10490222;28;1973;-82
2022/04/19 14:45:25;;;;;;;;;;;;;;;14.76;33.15;94863.47;10496824;28;1511;-80
2022/04/19 14:50:31;;;;;;;;;;;;;;;14.57;32.98;94861.94;10478971;28;1508;-80
2022/04/19 14:55:34;;;;;;;;;;;;;;;14.44;34.22;94865.59;10471614;28;1576;-80
2022/04/19 15:00:39;;;;;;;;;;;;;;;15.56;32.82;94879.91;10465546;28;1902;-80
2022/04/19 15:05:48;;;;;;;;;;;;;;;14.99;33.57;94866.78;10496615;28;1248;-79
2022/04/19 15:10:52;;;;;;;;;;;;;;;14.54;34.74;94867.19;10501598;28;1322;-81
2022/04/19 15:15:55;;;;;;;;;;;;;;;14.54;34.37;94867.19;10479973;28;1512;-83
2022/04/19 15:20:59;;;;;;;;;;;;;;;14.84;33.30;94866.19;10484438;28;1890;-81
2022/04/19 15:26:03;;;;;;;;;;;;;;;14.31;33.86;94880.06;10474555;28;1208;-82
2022/04/19 15:31:07;;;;;;;;;;;;;;;14.34;33.87;94879.44;10482772;28;1544;-79
2022/04/19 15:36:17;;;;;;;;;;;14.90;99.90;;;14.09;34.29;94880.22;10473532;28;1706;-78
2022/04/19 15:41:20;;;;;;;;;;;14.90;81.90;;;14.07;34.59;94881.34;10485619;28;1902;-84
2022/04/19 15:46:23;;;;;;;;;;;15.00;81.30;;;14.03;35.49;94874.97;10528245;28;1436;-85
2022/04/19 15:51:26;;;;;;;;;;;14.80;82.50;;;13.70;35.97;94884.63;10500404;28;1496;-85
2022/04/19 15:56:32;;;;;;;;;;;14.70;83.50;;;13.81;36.01;94883.22;10487619;28;1488;-85
2022/04/19 16:07:07;;;;;;;;;;;14.60;82.20;;;13.43;36.17;94889.16;10473339;28;1547;-80
2022/04/19 16:12:12;;;;;;;;;;;14.40;82.20;;;13.56;36.26;94892.06;10457514;28;1467;-81
2022/04/19 16:28:05;;;;;;;;;;;;;;;12.98;37.43;94905.44;10461321;28;1868;-81
2022/04/19 16:33:08;;;;;;;;;;;13.90;88.00;;;13.19;37.40;94916.50;10474399;28;1542;-79
2022/04/19 16:38:12;;;;;;;;;;;13.90;88.90;;;13.05;37.84;94920.41;10489576;28;1503;-83
2022/04/19 16:43:15;;;;;;;;;;;13.90;89.80;;;12.94;38.02;94915.25;10500367;28;1950;-80
2022/04/19 16:48:19;;;;;;;;;;;13.90;90.70;;;13.01;38.16;94928.31;10489030;28;2292;-79
2022/04/19 16:53:35;;;;;;;;;;;13.80;91.10;;;13.19;37.37;94929.19;10499643;28;1453;-81
2022/04/19 16:58:48;;;;;;;;;;;13.90;92.00;;;13.08;37.87;94936.75;10480699;28;1591;-79
2022/04/19 17:04:03;;;;;;;;;;;13.90;92.70;;;12.99;38.54;94928.63;10479453;28;1902;-80
2022/04/19 17:09:09;;;;;;;;;;;13.80;94.30;;;12.73;39.31;94951.94;10489160;28;1629;-80
2022/04/19 17:14:13;;;;;;;;;;;13.70;94.20;;;12.65;39.61;94942.66;10486016;28;1498;-80
2022/04/19 17:19:17;;;;;;;;;;;13.60;95.40;;;12.43;40.16;94965.03;10510963;28;1506;-80
2022/04/19 17:24:21;;;;;;;;;;;;;;;11.64;41.79;94978.81;10488478;28;1498;-79
2022/04/19 17:29:26;;;;;;;;;;;12.40;99.90;;;11.47;41.93;94986.66;10480970;28;1424;-77
2022/04/19 17:34:34;;;;;;;;;;;12.40;99.90;;;10.55;47.77;95025.03;10506149;28;1416;-81
2022/04/19 17:39:37;;;;;;;;;;;11.90;99.90;;;9.84;50.09;95042.06;10498792;28;1918;-77
2022/04/19 17:44:43;;;;;;;;;;;;;;;9.44;51.48;95049.47;10477117;28;1470;-78
2022/04/19 18:00:25;;;;;;;;;;;9.90;99.90;;;8.86;56.67;95089.66;10467440;28;1915;-77
2022/04/19 18:05:41;;;;;;;;;;;9.80;99.90;;;8.78;57.42;95090.22;10487368;28;1518;-80
2022/04/19 18:10:52;;;;;;;;;;;9.70;99.90;;;8.53;58.04;95100.03;10496616;28;1642;-78
2022/04/19 18:15:56;;;;;;;;;;;9.50;99.90;;;8.54;59.21;95115.03;10502738;28;1421;-81
2022/04/19 18:21:00;;;;;;;;;;;;;;;8.50;59.20;95116.66;10495876;28;1907;-79
2022/04/19 18:26:05;;;;;;;;;;;;;;;8.42;59.65;95122.59;10492953;28;1463;-79
2022/04/19 18:31:09;;;;;;;;;;;;;;;8.42;60.31;95125.28;10458198;28;1588;-78
2022/04/19 18:36:14;;;;;;;;;;;;;;;8.41;60.38;95134.38;10492054;28;1170;-80
2022/04/19 18:41:57;;;;;;;;;;;;;;;8.44;60.25;95149.91;10491157;28;1961;-78
2022/04/19 18:47:05;;;;;;;;;;;;;;;8.43;60.16;95169.72;10486264;28;1605;-80
2022/04/19 18:52:12;;;;;;;;;;;;;;;8.37;60.49;95168.94;10497165;28;1627;-78
2022/04/19 18:57:24;;;;;;;;;;;;;;;8.22;60.22;95184.25;10468715;28;1528;-80
2022/04/19 19:02:31;;;;;;;;;;;9.00;99.90;;;8.02;61.60;95207.31;10459957;28;1993;-77
2022/04/19 19:07:35;;;;;;;;;;;9.00;99.90;;;7.74;63.73;95231.97;10454517;28;1575;-77
2022/04/19 19:12:38;;;;;;;;;;;8.50;99.90;;;7.45;67.59;95245.88;10484585;28;1330;-79
2022/04/19 19:17:42;;;;;;;;;;;8.40;99.90;;;7.16;71.03;95253.56;10496746;28;1755;-77
2022/04/19 19:22:47;;;;;;;;;;;;;;;6.89;73.93;95290.38;10463992;28;1905;-77
2022/04/19 19:27:50;;;;;;;;;;;;;;;6.47;75.36;95310.75;10490524;28;1463;-78
2022/04/19 19:32:57;;;;;;;;;;;;;;;6.05;76.10;95313.44;10484747;28;1906;-79
2022/04/19 19:38:06;;;;;;;;;;;;;;;5.87;77.46;95333.28;10479119;28;1555;-78
2022/04/19 19:43:10;;;;;;;;;;;;;;;5.73;78.94;95337.44;10482348;22;1951;-73
2022/04/19 19:48:14;;;;;;;;;;;;;;;5.67;79.82;95327.78;10455067;28;1547;-75
2022/04/19 19:53:18;;;;;;;;;;;;;;;5.56;80.58;95331.41;10476573;22;2115;-77
2022/04/19 19:58:21;;;;;;;;;;;;;;;5.52;80.86;95347.09;10500340;28;1479;-78
2022/04/19 20:03:25;;;;;;;;;;;;;;;5.48;79.59;95351.31;10545917;28;1894;-78
2022/04/19 20:08:28;;;;;;;;;;;;;;;5.35;78.08;95347.19;10553223;28;1592;-80
2022/04/19 20:13:32;;;;;;;;;;;;;;;5.27;77.22;95363.63;10535971;28;1500;-77
2022/04/19 20:18:35;;;;;;;;;;;;;;;5.17;76.84;95349.38;10532361;28;1429;-78
2022/04/19 20:23:38;;;;;;;;;;;;;;;5.07;77.49;95366.06;10538498;28;1977;-77
2022/04/19 20:28:42;;;;;;;;;;;;;;;5.12;77.42;95364.25;10532332;28;1891;-78
2022/04/19 20:33:46;;;;;;;;;;;;;;;4.99;78.98;95358.50;10529983;28;1584;-78
2022/04/19 20:38:49;;;;;;;;;;;;;;;4.96;79.60;95364.31;10543979;28;1482;-77
2022/04/19 20:43:53;;;;;;;;;;;;;;;4.82;80.34;95364.69;10539379;28;1891;-77
2022/04/19 20:54:21;;;;;;;;;;;;;;;4.66;81.30;95356.75;10548616;28;1570;-78
2022/04/19 20:59:25;;;;;;;;;;;;;;;4.66;81.45;95360.22;10568042;28;1508;-78
2022/04/19 21:04:28;;;;;;;;;;;;;;;4.61;82.44;95362.81;10539739;28;1913;-77
2022/04/19 21:09:31;;;;;;;;;;;;;;;4.70;81.86;95365.84;10554952;28;2210;-78
2022/04/19 21:14:35;;;;;;;;;;;;;;;4.65;82.39;95369.28;10532671;28;1574;-77
2022/04/19 21:19:38;;;;;;;;;;;;;;;4.63;82.57;95371.34;10559223;28;1913;-78
2022/04/19 21:24:41;;;;;;;;;;;;;;;4.54;82.46;95370.97;10539295;28;1922;-76
2022/04/19 21:29:45;;;;;;;;;;;;;;;4.45;82.77;95374.28;10548039;28;1348;-76
2022/04/19 21:34:48;;;;;;;;;;;;;;;4.37;82.60;95372.06;10536799;28;1498;-76
2022/04/19 21:39:52;;;;;;;;;;;;;;;4.33;81.83;95372.56;10553429;28;1443;-78
2022/04/19 21:44:56;;;;;;;;;;;;;;;4.29;81.84;95370.63;10550480;28;1906;-77
2022/04/19 21:49:59;;;;;;;;;;;;;;;4.27;81.46;95367.41;10541006;28;1465;-78
2022/04/19 21:55:03;;;;;;;;;;;;;;;4.16;81.43;95374.41;10535336;28;1513;-78
2022/04/19 22:00:06;;;;;;;;;;;;;;;4.16;81.00;95374.41;10527260;28;1979;-77
2022/04/19 22:05:10;;;;;;;;;;;;;;;4.17;80.54;95372.56;10532480;28;1906;-77
2022/04/19 22:10:13;;;;;;;;;;;;;;;4.05;81.14;95369.97;10569354;28;1575;-77
2022/04/19 22:15:17;;;;;;;;;;;;;;;4.03;80.88;95369.44;10567746;28;1631;-78
2022/04/19 22:20:21;;;;;;;;;;;;;;;3.96;80.88;95372.25;10564056;28;1545;-77
2022/04/19 22:25:25;;;;;;;;;;;;;;;4.02;80.43;95365.97;10537491;28;1952;-78
2022/04/19 22:30:29;;;;;;;;;;;;;;;4.02;80.63;95368.63;10529807;28;1486;-77
2022/04/19 22:35:33;;;;;;;;;;;;;;;3.92;80.53;95368.44;10562525;28;1527;-77
2022/04/19 22:40:37;;;;;;;;;;;;;;;3.91;81.33;95369.50;10560468;28;1438;-78
2022/04/19 22:45:40;;;;;;;;;;;;;;;3.81;81.28;95369.31;10551891;28;1489;-78
2022/04/19 22:50:45;;;;;;;;;;;;;;;3.85;82.14;95373.13;10544937;28;1581;-78
2022/04/19 22:55:49;;;;;;;;;;;;;;;3.75;82.48;95364.97;10547474;28;1582;-78
2022/04/19 23:00:54;;;;;;;;;;;;;;;3.76;82.15;95356.78;10534942;28;1887;-77
2022/04/19 23:05:57;;;;;;;;;;;;;;;3.70;81.12;95362.25;10558880;28;1184;-78
2022/04/19 23:11:01;;;;;;;;;;;;;;;3.63;80.43;95349.13;10554115;28;1592;-78
2022/04/19 23:16:05;;;;;;;;;;;;;;;3.61;80.65;95359.16;10559477;28;1628;-77
2022/04/19 23:21:09;;;;;;;;;;;;;;;3.52;81.86;95349.97;10543332;28;1905;-78
2022/04/19 23:31:34;;;;;;;;;;;;;;;3.26;84.08;95335.44;10545795;28;1387;-78
2022/04/19 23:36:41;;;;;;;;;;;;;;;3.19;85.50;95332.94;10536470;28;1510;-78
2022/04/19 23:41:45;;;;;;;;;;;;;;;3.14;85.78;95322.22;10531935;28;1966;-77
2022/04/19 23:46:49;;;;;;;;;;;;;;;3.01;87.74;95333.13;10555016;28;1398;-77
2022/04/19 23:51:54;;;;;;;;;;;;;;;2.87;89.31;95331.78;10579116;28;1552;-77
2022/04/19 23:56:58;;;;;;;;;;;4.00;99.90;;;2.88;89.66;95326.22;10552715;28;1491;-77
